sensor_id;sensor_type;location;lat;lon;timestamp;temperature;humidity
18577;DHT22;9418;52.694;13.294;2022-08-19T00:01:14;20.50;99.90
18577;DHT22;9418;52.694;13.294;2022-08-19T00:03:40;20.40;99.90
18577;DHT22;9418;52.694;13.294;2022-08-19T00:06:07;20.50;99.90
18577;DHT22;9418;52.694;13.294;2022-08-19T00:08:35;20.40;99.90
18577;DHT22;9418;52.694;13.294;2022-08-19T00:11:03;20.40;99.90
18577;DHT22;9418;52.694;13.294;2022-08-19T00:13:30;20.50;99.90
18577;DHT22;9418;52.694;13.294;2022-08-19T00:15:56;20.50;99.90
18577;DHT22;9418;52.694;13.294;2022-08-19T00:18:24;20.50;99.90
18577;DHT22;9418;52.694;13.294;2022-08-19T00:20:51;20.40;99.90
18577;DHT22;9418;52.694;13.294;2022-08-19T00:23:18;20.40;99.90
18577;DHT22;9418;52.694;13.294;2022-08-19T00:25:44;20.40;99.90
18577;DHT22;9418;52.694;13.294;2022-08-19T00:28:12;20.40;99.90
18577;DHT22;9418;52.694;13.294;2022-08-19T00:30:39;20.30;99.90
18577;DHT22;9418;52.694;13.294;2022-08-19T00:33:06;20.40;99.90
18577;DHT22;9418;52.694;13.294;2022-08-19T00:35:33;20.40;99.90
18577;DHT22;9418;52.694;13.294;2022-08-19T00:38:00;20.30;99.90
18577;DHT22;9418;52.694;13.294;2022-08-19T00:40:26;20.30;99.90
18577;DHT22;9418;52.694;13.294;2022-08-19T00:42:53;20.40;99.90
18577;DHT22;9418;52.694;13.294;2022-08-19T00:45:25;20.40;99.90
18577;DHT22;9418;52.694;13.294;2022-08-19T00:47:52;20.40;99.90
18577;DHT22;9418;52.694;13.294;2022-08-19T00:50:20;20.40;99.90
18577;DHT22;9418;52.694;13.294;2022-08-19T00:52:50;20.30;99.90
18577;DHT22;9418;52.694;13.294;2022-08-19T00:55:21;20.40;99.90
18577;DHT22;9418;52.694;13.294;2022-08-19T00:57:55;20.40;99.90
18577;DHT22;9418;52.694;13.294;2022-08-19T01:00:26;20.30;99.90
18577;DHT22;9418;52.694;13.294;2022-08-19T01:02:53;20.30;99.90
18577;DHT22;9418;52.694;13.294;2022-08-19T01:05:21;20.40;99.90
18577;DHT22;9418;52.694;13.294;2022-08-19T01:07:49;20.30;99.90
18577;DHT22;9418;52.694;13.294;2022-08-19T01:10:19;20.30;99.90
18577;DHT22;9418;52.694;13.294;2022-08-19T01:12:46;20.40;1.40
18577;DHT22;9418;52.694;13.294;2022-08-19T01:15:17;20.30;99.90
18577;DHT22;9418;52.694;13.294;2022-08-19T01:17:46;20.30;99.90
18577;DHT22;9418;52.694;13.294;2022-08-19T01:20:16;20.20;99.90
18577;DHT22;9418;52.694;13.294;2022-08-19T01:22:47;20.20;99.90
18577;DHT22;9418;52.694;13.294;2022-08-19T01:25:15;20.20;99.90
18577;DHT22;9418;52.694;13.294;2022-08-19T01:27:45;20.30;99.90
18577;DHT22;9418;52.694;13.294;2022-08-19T01:30:15;20.20;99.90
18577;DHT22;9418;52.694;13.294;2022-08-19T01:32:42;20.20;99.90
18577;DHT22;9418;52.694;13.294;2022-08-19T01:35:09;20.20;99.90
18577;DHT22;9418;52.694;13.294;2022-08-19T01:37:45;20.20;99.90
18577;DHT22;9418;52.694;13.294;2022-08-19T01:40:14;20.20;99.90
18577;DHT22;9418;52.694;13.294;2022-08-19T01:42:40;20.20;99.90
18577;DHT22;9418;52.694;13.294;2022-08-19T01:45:08;20.20;99.90
18577;DHT22;9418;52.694;13.294;2022-08-19T01:47:35;20.20;99.90
18577;DHT22;9418;52.694;13.294;2022-08-19T01:50:04;20.20;99.90
18577;DHT22;9418;52.694;13.294;2022-08-19T01:52:31;20.20;99.90
18577;DHT22;9418;52.694;13.294;2022-08-19T01:54:59;20.20;99.90
18577;DHT22;9418;52.694;13.294;2022-08-19T01:57:26;20.20;99.90
18577;DHT22;9418;52.694;13.294;2022-08-19T01:59:53;20.20;99.90
18577;DHT22;9418;52.694;13.294;2022-08-19T02:02:19;20.20;99.90
18577;DHT22;9418;52.694;13.294;2022-08-19T02:04:46;20.20;99.90
18577;DHT22;9418;52.694;13.294;2022-08-19T02:07:13;20.20;99.90
18577;DHT22;9418;52.694;13.294;2022-08-19T02:09:39;20.20;99.90
18577;DHT22;9418;52.694;13.294;2022-08-19T02:12:07;20.20;99.90
18577;DHT22;9418;52.694;13.294;2022-08-19T02:14:35;20.20;99.90
18577;DHT22;9418;52.694;13.294;2022-08-19T02:17:01;20.10;99.90
18577;DHT22;9418;52.694;13.294;2022-08-19T02:19:28;20.10;99.90
18577;DHT22;9418;52.694;13.294;2022-08-19T02:21:57;20.10;99.90
18577;DHT22;9418;52.694;13.294;2022-08-19T02:24:23;20.10;99.90
18577;DHT22;9418;52.694;13.294;2022-08-19T02:26:50;20.10;99.90
18577;DHT22;9418;52.694;13.294;2022-08-19T02:29:18;20.10;99.90
18577;DHT22;9418;52.694;13.294;2022-08-19T02:31:46;20.10;99.90
18577;DHT22;9418;52.694;13.294;2022-08-19T02:34:12;20.10;99.90
18577;DHT22;9418;52.694;13.294;2022-08-19T02:36:39;20.10;99.90
18577;DHT22;9418;52.694;13.294;2022-08-19T02:39:06;20.00;99.90
18577;DHT22;9418;52.694;13.294;2022-08-19T02:41:32;20.10;99.90
18577;DHT22;9418;52.694;13.294;2022-08-19T02:44:01;20.00;99.90
18577;DHT22;9418;52.694;13.294;2022-08-19T02:46:32;20.00;99.90
18577;DHT22;9418;52.694;13.294;2022-08-19T02:49:03;20.00;99.90
18577;DHT22;9418;52.694;13.294;2022-08-19T02:51:32;19.90;99.90
18577;DHT22;9418;52.694;13.294;2022-08-19T02:53:59;19.80;99.90
18577;DHT22;9418;52.694;13.294;2022-08-19T02:56:26;19.80;99.90
18577;DHT22;9418;52.694;13.294;2022-08-19T02:58:53;19.70;99.90
18577;DHT22;9418;52.694;13.294;2022-08-19T03:01:21;19.70;99.90
18577;DHT22;9418;52.694;13.294;2022-08-19T03:03:49;19.80;99.90
18577;DHT22;9418;52.694;13.294;2022-08-19T03:06:17;19.70;99.90
18577;DHT22;9418;52.694;13.294;2022-08-19T03:08:45;19.70;99.90
18577;DHT22;9418;52.694;13.294;2022-08-19T03:11:16;19.70;99.90
18577;DHT22;9418;52.694;13.294;2022-08-19T03:13:43;19.70;99.90
18577;DHT22;9418;52.694;13.294;2022-08-19T03:16:11;19.70;99.90
18577;DHT22;9418;52.694;13.294;2022-08-19T03:18:38;19.80;99.90
18577;DHT22;9418;52.694;13.294;2022-08-19T03:21:06;19.70;99.90
18577;DHT22;9418;52.694;13.294;2022-08-19T03:23:33;19.70;99.90
18577;DHT22;9418;52.694;13.294;2022-08-19T03:26:03;19.80;99.90
18577;DHT22;9418;52.694;13.294;2022-08-19T03:28:31;19.70;99.90
18577;DHT22;9418;52.694;13.294;2022-08-19T03:31:01;19.80;99.90
18577;DHT22;9418;52.694;13.294;2022-08-19T03:33:28;19.80;99.90
18577;DHT22;9418;52.694;13.294;2022-08-19T03:36:11;19.80;99.90
18577;DHT22;9418;52.694;13.294;2022-08-19T03:38:41;19.80;99.90
18577;DHT22;9418;52.694;13.294;2022-08-19T03:41:10;19.80;99.90
18577;DHT22;9418;52.694;13.294;2022-08-19T03:43:39;19.80;99.90
18577;DHT22;9418;52.694;13.294;2022-08-19T03:46:08;19.80;99.90
18577;DHT22;9418;52.694;13.294;2022-08-19T03:48:36;19.80;99.90
18577;DHT22;9418;52.694;13.294;2022-08-19T03:51:06;19.80;99.90
18577;DHT22;9418;52.694;13.294;2022-08-19T03:53:35;19.80;99.90
18577;DHT22;9418;52.694;13.294;2022-08-19T03:56:01;19.80;99.90
18577;DHT22;9418;52.694;13.294;2022-08-19T03:58:29;19.70;99.90
18577;DHT22;9418;52.694;13.294;2022-08-19T04:00:56;19.70;99.90
18577;DHT22;9418;52.694;13.294;2022-08-19T04:03:23;19.70;99.90
18577;DHT22;9418;52.694;13.294;2022-08-19T04:05:50;19.70;99.90
18577;DHT22;9418;52.694;13.294;2022-08-19T04:08:18;19.70;99.90
18577;DHT22;9418;52.694;13.294;2022-08-19T04:10:46;19.70;99.90
18577;DHT22;9418;52.694;13.294;2022-08-19T04:13:13;19.70;99.90
18577;DHT22;9418;52.694;13.294;2022-08-19T04:15:40;19.60;99.90
18577;DHT22;9418;52.694;13.294;2022-08-19T04:18:08;19.60;99.90
18577;DHT22;9418;52.694;13.294;2022-08-19T04:20:42;19.60;99.90
18577;DHT22;9418;52.694;13.294;2022-08-19T04:23:09;19.60;99.90
18577;DHT22;9418;52.694;13.294;2022-08-19T04:25:40;19.60;99.90
18577;DHT22;9418;52.694;13.294;2022-08-19T04:28:09;19.60;99.90
18577;DHT22;9418;52.694;13.294;2022-08-19T04:30:40;19.60;99.90
18577;DHT22;9418;52.694;13.294;2022-08-19T04:33:07;19.60;99.90
18577;DHT22;9418;52.694;13.294;2022-08-19T04:35:38;19.60;99.90
18577;DHT22;9418;52.694;13.294;2022-08-19T04:38:06;19.70;99.90
18577;DHT22;9418;52.694;13.294;2022-08-19T04:40:32;19.70;99.90
18577;DHT22;9418;52.694;13.294;2022-08-19T04:43:34;19.60;99.90
18577;DHT22;9418;52.694;13.294;2022-08-19T04:46:05;19.70;99.90
18577;DHT22;9418;52.694;13.294;2022-08-19T04:48:31;19.60;99.90
18577;DHT22;9418;52.694;13.294;2022-08-19T04:50:58;19.70;99.90
18577;DHT22;9418;52.694;13.294;2022-08-19T04:53:25;19.60;99.90
18577;DHT22;9418;52.694;13.294;2022-08-19T04:55:54;19.60;99.90
18577;DHT22;9418;52.694;13.294;2022-08-19T04:58:20;19.70;99.90
18577;DHT22;9418;52.694;13.294;2022-08-19T05:00:48;19.70;99.90
18577;DHT22;9418;52.694;13.294;2022-08-19T05:03:15;19.70;99.90
18577;DHT22;9418;52.694;13.294;2022-08-19T05:05:43;19.60;99.90
18577;DHT22;9418;52.694;13.294;2022-08-19T05:08:10;19.60;99.90
18577;DHT22;9418;52.694;13.294;2022-08-19T05:10:37;19.70;99.90
18577;DHT22;9418;52.694;13.294;2022-08-19T05:13:04;19.70;99.90
18577;DHT22;9418;52.694;13.294;2022-08-19T05:15:31;19.70;99.90
18577;DHT22;9418;52.694;13.294;2022-08-19T05:17:59;19.70;99.90
18577;DHT22;9418;52.694;13.294;2022-08-19T05:20:43;19.70;99.90
18577;DHT22;9418;52.694;13.294;2022-08-19T05:23:41;19.70;99.90
18577;DHT22;9418;52.694;13.294;2022-08-19T05:26:09;19.70;99.90
18577;DHT22;9418;52.694;13.294;2022-08-19T05:28:36;19.70;99.90
18577;DHT22;9418;52.694;13.294;2022-08-19T05:31:02;19.80;99.90
18577;DHT22;9418;52.694;13.294;2022-08-19T05:33:30;19.80;99.90
18577;DHT22;9418;52.694;13.294;2022-08-19T05:35:57;19.80;99.90
18577;DHT22;9418;52.694;13.294;2022-08-19T05:38:23;19.80;99.90
18577;DHT22;9418;52.694;13.294;2022-08-19T05:40:51;19.90;99.90
18577;DHT22;9418;52.694;13.294;2022-08-19T05:43:18;19.90;99.90
18577;DHT22;9418;52.694;13.294;2022-08-19T05:45:45;20.00;99.90
18577;DHT22;9418;52.694;13.294;2022-08-19T05:48:12;20.00;99.90
18577;DHT22;9418;52.694;13.294;2022-08-19T05:50:41;20.10;99.90
18577;DHT22;9418;52.694;13.294;2022-08-19T05:53:09;20.10;99.90
18577;DHT22;9418;52.694;13.294;2022-08-19T05:55:36;20.20;99.90
18577;DHT22;9418;52.694;13.294;2022-08-19T05:58:03;20.20;99.90
18577;DHT22;9418;52.694;13.294;2022-08-19T06:00:32;20.20;99.90
18577;DHT22;9418;52.694;13.294;2022-08-19T06:02:59;20.20;99.90
18577;DHT22;9418;52.694;13.294;2022-08-19T06:05:28;20.20;99.90
18577;DHT22;9418;52.694;13.294;2022-08-19T06:07:56;20.30;99.90
18577;DHT22;9418;52.694;13.294;2022-08-19T06:10:24;20.40;99.90
18577;DHT22;9418;52.694;13.294;2022-08-19T06:12:51;20.40;99.90
18577;DHT22;9418;52.694;13.294;2022-08-19T06:15:18;20.50;99.90
18577;DHT22;9418;52.694;13.294;2022-08-19T06:17:44;20.60;99.90
18577;DHT22;9418;52.694;13.294;2022-08-19T06:20:13;20.60;99.90
18577;DHT22;9418;52.694;13.294;2022-08-19T06:22:42;20.70;99.90
18577;DHT22;9418;52.694;13.294;2022-08-19T06:25:11;20.70;99.90
18577;DHT22;9418;52.694;13.294;2022-08-19T06:27:38;20.70;99.90
18577;DHT22;9418;52.694;13.294;2022-08-19T06:30:06;20.80;99.90
18577;DHT22;9418;52.694;13.294;2022-08-19T06:32:33;20.80;99.90
18577;DHT22;9418;52.694;13.294;2022-08-19T06:35:00;20.80;99.90
18577;DHT22;9418;52.694;13.294;2022-08-19T06:37:26;20.70;99.90
18577;DHT22;9418;52.694;13.294;2022-08-19T06:39:53;20.80;99.90
18577;DHT22;9418;52.694;13.294;2022-08-19T06:42:21;20.80;99.90
18577;DHT22;9418;52.694;13.294;2022-08-19T06:44:48;20.80;99.90
18577;DHT22;9418;52.694;13.294;2022-08-19T06:47:17;20.80;99.90
18577;DHT22;9418;52.694;13.294;2022-08-19T06:49:44;20.90;99.90
18577;DHT22;9418;52.694;13.294;2022-08-19T06:52:12;21.00;99.90
18577;DHT22;9418;52.694;13.294;2022-08-19T06:54:40;21.00;99.90
18577;DHT22;9418;52.694;13.294;2022-08-19T06:57:07;21.00;99.90
18577;DHT22;9418;52.694;13.294;2022-08-19T06:59:39;21.00;99.90
18577;DHT22;9418;52.694;13.294;2022-08-19T07:02:06;21.10;99.90
18577;DHT22;9418;52.694;13.294;2022-08-19T07:04:34;21.20;99.90
18577;DHT22;9418;52.694;13.294;2022-08-19T07:07:04;21.20;99.90
18577;DHT22;9418;52.694;13.294;2022-08-19T07:09:33;21.20;99.90
18577;DHT22;9418;52.694;13.294;2022-08-19T07:12:04;21.20;99.90
18577;DHT22;9418;52.694;13.294;2022-08-19T07:14:31;21.20;99.90
18577;DHT22;9418;52.694;13.294;2022-08-19T07:17:03;21.20;99.90
18577;DHT22;9418;52.694;13.294;2022-08-19T07:19:30;21.20;99.90
18577;DHT22;9418;52.694;13.294;2022-08-19T07:22:00;21.20;99.90
18577;DHT22;9418;52.694;13.294;2022-08-19T07:24:27;21.20;99.90
18577;DHT22;9418;52.694;13.294;2022-08-19T07:26:55;21.20;99.90
18577;DHT22;9418;52.694;13.294;2022-08-19T07:29:27;21.20;99.90
18577;DHT22;9418;52.694;13.294;2022-08-19T07:31:55;21.10;99.90
18577;DHT22;9418;52.694;13.294;2022-08-19T07:34:26;21.10;99.90
18577;DHT22;9418;52.694;13.294;2022-08-19T07:36:54;21.10;99.90
18577;DHT22;9418;52.694;13.294;2022-08-19T07:39:23;21.20;99.90
18577;DHT22;9418;52.694;13.294;2022-08-19T07:41:51;21.20;99.90
18577;DHT22;9418;52.694;13.294;2022-08-19T07:44:19;21.30;99.90
18577;DHT22;9418;52.694;13.294;2022-08-19T07:46:48;21.30;99.90
18577;DHT22;9418;52.694;13.294;2022-08-19T07:49:16;21.30;99.90
18577;DHT22;9418;52.694;13.294;2022-08-19T07:51:47;21.40;99.90
18577;DHT22;9418;52.694;13.294;2022-08-19T07:54:14;21.30;99.90
18577;DHT22;9418;52.694;13.294;2022-08-19T07:56:40;21.30;99.90
18577;DHT22;9418;52.694;13.294;2022-08-19T07:59:07;21.40;99.90
18577;DHT22;9418;52.694;13.294;2022-08-19T08:01:34;21.40;99.90
18577;DHT22;9418;52.694;13.294;2022-08-19T08:04:01;21.40;99.90
18577;DHT22;9418;52.694;13.294;2022-08-19T08:06:47;21.40;99.90
18577;DHT22;9418;52.694;13.294;2022-08-19T08:09:35;21.40;99.90
18577;DHT22;9418;52.694;13.294;2022-08-19T08:12:05;21.50;99.90
18577;DHT22;9418;52.694;13.294;2022-08-19T08:14:34;21.50;99.90
18577;DHT22;9418;52.694;13.294;2022-08-19T08:17:02;21.50;99.90
18577;DHT22;9418;52.694;13.294;2022-08-19T08:19:29;21.50;99.90
18577;DHT22;9418;52.694;13.294;2022-08-19T08:21:59;21.50;99.90
18577;DHT22;9418;52.694;13.294;2022-08-19T08:24:27;21.40;99.90
18577;DHT22;9418;52.694;13.294;2022-08-19T08:26:54;21.40;99.90
18577;DHT22;9418;52.694;13.294;2022-08-19T08:29:21;21.50;99.90
18577;DHT22;9418;52.694;13.294;2022-08-19T08:31:48;21.50;99.90
18577;DHT22;9418;52.694;13.294;2022-08-19T08:34:14;21.50;99.90
18577;DHT22;9418;52.694;13.294;2022-08-19T08:36:43;21.50;99.90
18577;DHT22;9418;52.694;13.294;2022-08-19T08:39:13;21.50;99.90
18577;DHT22;9418;52.694;13.294;2022-08-19T08:41:44;21.50;99.90
18577;DHT22;9418;52.694;13.294;2022-08-19T08:44:20;21.50;99.90
18577;DHT22;9418;52.694;13.294;2022-08-19T08:46:49;21.50;99.90
18577;DHT22;9418;52.694;13.294;2022-08-19T08:49:26;21.50;99.90
18577;DHT22;9418;52.694;13.294;2022-08-19T08:52:00;21.50;99.90
18577;DHT22;9418;52.694;13.294;2022-08-19T08:54:34;21.60;99.90
18577;DHT22;9418;52.694;13.294;2022-08-19T08:57:05;21.60;99.90
18577;DHT22;9418;52.694;13.294;2022-08-19T08:59:36;21.60;99.90
18577;DHT22;9418;52.694;13.294;2022-08-19T09:02:03;21.60;99.90
18577;DHT22;9418;52.694;13.294;2022-08-19T09:04:31;21.60;99.90
18577;DHT22;9418;52.694;13.294;2022-08-19T09:07:09;21.70;99.90
18577;DHT22;9418;52.694;13.294;2022-08-19T09:09:44;21.70;99.90
18577;DHT22;9418;52.694;13.294;2022-08-19T09:12:18;21.70;99.90
18577;DHT22;9418;52.694;13.294;2022-08-19T09:14:53;21.80;99.90
18577;DHT22;9418;52.694;13.294;2022-08-19T09:17:24;21.80;99.90
18577;DHT22;9418;52.694;13.294;2022-08-19T09:19:58;21.80;99.90
18577;DHT22;9418;52.694;13.294;2022-08-19T09:22:26;21.80;99.90
18577;DHT22;9418;52.694;13.294;2022-08-19T09:24:54;21.80;99.90
18577;DHT22;9418;52.694;13.294;2022-08-19T09:27:23;21.80;99.90
18577;DHT22;9418;52.694;13.294;2022-08-19T09:29:50;21.80;99.90
18577;DHT22;9418;52.694;13.294;2022-08-19T09:32:17;21.80;99.90
18577;DHT22;9418;52.694;13.294;2022-08-19T09:34:44;21.80;99.90
18577;DHT22;9418;52.694;13.294;2022-08-19T09:37:10;21.80;99.90
18577;DHT22;9418;52.694;13.294;2022-08-19T09:39:37;21.90;99.90
18577;DHT22;9418;52.694;13.294;2022-08-19T09:42:05;22.00;99.90
18577;DHT22;9418;52.694;13.294;2022-08-19T09:44:36;22.10;99.90
18577;DHT22;9418;52.694;13.294;2022-08-19T09:47:03;22.20;99.90
18577;DHT22;9418;52.694;13.294;2022-08-19T09:49:30;22.30;99.90
18577;DHT22;9418;52.694;13.294;2022-08-19T09:51:57;22.30;99.90
18577;DHT22;9418;52.694;13.294;2022-08-19T09:54:24;22.40;99.90
18577;DHT22;9418;52.694;13.294;2022-08-19T09:56:51;22.30;36.80
18577;DHT22;9418;52.694;13.294;2022-08-19T09:59:19;22.40;44.60
18577;DHT22;9418;52.694;13.294;2022-08-19T10:01:46;22.50;48.40
18577;DHT22;9418;52.694;13.294;2022-08-19T10:04:12;22.50;58.70
18577;DHT22;9418;52.694;13.294;2022-08-19T10:06:45;22.50;62.00
18577;DHT22;9418;52.694;13.294;2022-08-19T10:09:14;22.60;74.40
18577;DHT22;9418;52.694;13.294;2022-08-19T10:11:42;22.60;84.80
18577;DHT22;9418;52.694;13.294;2022-08-19T10:14:11;22.60;88.80
18577;DHT22;9418;52.694;13.294;2022-08-19T10:16:38;22.60;99.90
18577;DHT22;9418;52.694;13.294;2022-08-19T10:19:06;22.70;99.90
18577;DHT22;9418;52.694;13.294;2022-08-19T10:21:34;22.60;99.90
18577;DHT22;9418;52.694;13.294;2022-08-19T10:24:03;22.60;99.90
18577;DHT22;9418;52.694;13.294;2022-08-19T10:26:33;22.60;99.90
18577;DHT22;9418;52.694;13.294;2022-08-19T10:29:01;22.60;99.90
18577;DHT22;9418;52.694;13.294;2022-08-19T10:31:31;22.60;99.90
18577;DHT22;9418;52.694;13.294;2022-08-19T10:34:00;22.60;99.90
18577;DHT22;9418;52.694;13.294;2022-08-19T10:36:29;22.70;99.90
18577;DHT22;9418;52.694;13.294;2022-08-19T10:38:58;22.70;99.90
18577;DHT22;9418;52.694;13.294;2022-08-19T10:41:29;22.80;99.90
18577;DHT22;9418;52.694;13.294;2022-08-19T10:43:57;22.80;99.90
18577;DHT22;9418;52.694;13.294;2022-08-19T10:46:26;22.80;99.90
18577;DHT22;9418;52.694;13.294;2022-08-19T10:48:53;22.80;99.90
18577;DHT22;9418;52.694;13.294;2022-08-19T10:51:21;22.80;99.90
18577;DHT22;9418;52.694;13.294;2022-08-19T10:54:06;22.80;99.90
18577;DHT22;9418;52.694;13.294;2022-08-19T10:56:33;22.80;99.90
18577;DHT22;9418;52.694;13.294;2022-08-19T10:59:19;22.80;99.90
18577;DHT22;9418;52.694;13.294;2022-08-19T11:01:46;22.80;99.90
18577;DHT22;9418;52.694;13.294;2022-08-19T11:04:13;22.80;99.90
18577;DHT22;9418;52.694;13.294;2022-08-19T11:06:45;22.80;99.90
18577;DHT22;9418;52.694;13.294;2022-08-19T11:09:13;22.80;99.90
18577;DHT22;9418;52.694;13.294;2022-08-19T11:11:40;22.70;99.90
18577;DHT22;9418;52.694;13.294;2022-08-19T11:14:08;22.70;99.90
18577;DHT22;9418;52.694;13.294;2022-08-19T11:16:35;22.70;99.90
18577;DHT22;9418;52.694;13.294;2022-08-19T11:19:03;22.70;99.90
18577;DHT22;9418;52.694;13.294;2022-08-19T11:21:31;22.80;99.90
18577;DHT22;9418;52.694;13.294;2022-08-19T11:24:02;22.80;99.90
18577;DHT22;9418;52.694;13.294;2022-08-19T11:26:30;22.80;99.90
18577;DHT22;9418;52.694;13.294;2022-08-19T11:28:57;22.80;99.90
18577;DHT22;9418;52.694;13.294;2022-08-19T11:31:27;22.90;99.90
18577;DHT22;9418;52.694;13.294;2022-08-19T11:33:56;22.90;99.90
18577;DHT22;9418;52.694;13.294;2022-08-19T11:36:22;22.90;99.90
18577;DHT22;9418;52.694;13.294;2022-08-19T11:38:49;22.90;99.90
18577;DHT22;9418;52.694;13.294;2022-08-19T11:41:20;22.90;99.90
18577;DHT22;9418;52.694;13.294;2022-08-19T11:43:48;22.80;99.90
18577;DHT22;9418;52.694;13.294;2022-08-19T11:46:16;22.80;99.90
18577;DHT22;9418;52.694;13.294;2022-08-19T11:48:43;22.80;99.90
18577;DHT22;9418;52.694;13.294;2022-08-19T11:51:11;22.70;99.90
18577;DHT22;9418;52.694;13.294;2022-08-19T11:53:39;22.70;99.90
18577;DHT22;9418;52.694;13.294;2022-08-19T11:56:07;22.70;99.90
18577;DHT22;9418;52.694;13.294;2022-08-19T11:58:36;22.70;99.90
18577;DHT22;9418;52.694;13.294;2022-08-19T12:01:05;22.80;99.90
18577;DHT22;9418;52.694;13.294;2022-08-19T12:03:32;22.80;99.90
18577;DHT22;9418;52.694;13.294;2022-08-19T12:06:02;22.80;99.90
18577;DHT22;9418;52.694;13.294;2022-08-19T12:08:29;22.80;99.90
18577;DHT22;9418;52.694;13.294;2022-08-19T12:10:55;22.70;99.90
18577;DHT22;9418;52.694;13.294;2022-08-19T12:13:22;22.70;99.90
18577;DHT22;9418;52.694;13.294;2022-08-19T12:15:50;22.70;99.90
18577;DHT22;9418;52.694;13.294;2022-08-19T12:18:18;22.60;99.90
18577;DHT22;9418;52.694;13.294;2022-08-19T12:20:44;22.60;99.90
18577;DHT22;9418;52.694;13.294;2022-08-19T12:23:13;22.50;99.90
18577;DHT22;9418;52.694;13.294;2022-08-19T12:25:45;22.50;99.90
18577;DHT22;9418;52.694;13.294;2022-08-19T12:28:15;22.50;99.90
18577;DHT22;9418;52.694;13.294;2022-08-19T12:30:42;22.40;99.90
18577;DHT22;9418;52.694;13.294;2022-08-19T12:33:10;22.40;99.90
18577;DHT22;9418;52.694;13.294;2022-08-19T12:35:39;22.40;99.90
18577;DHT22;9418;52.694;13.294;2022-08-19T12:38:06;22.40;99.90
18577;DHT22;9418;52.694;13.294;2022-08-19T12:40:32;22.40;99.90
18577;DHT22;9418;52.694;13.294;2022-08-19T12:42:59;22.40;99.90
18577;DHT22;9418;52.694;13.294;2022-08-19T12:45:25;22.40;99.90
18577;DHT22;9418;52.694;13.294;2022-08-19T12:47:52;22.50;99.90
18577;DHT22;9418;52.694;13.294;2022-08-19T12:50:20;22.50;99.90
18577;DHT22;9418;52.694;13.294;2022-08-19T12:52:47;22.50;99.90
18577;DHT22;9418;52.694;13.294;2022-08-19T12:55:14;22.50;99.90
18577;DHT22;9418;52.694;13.294;2022-08-19T12:57:41;22.60;99.90
18577;DHT22;9418;52.694;13.294;2022-08-19T13:00:11;22.60;99.90
18577;DHT22;9418;52.694;13.294;2022-08-19T13:02:39;22.70;99.90
18577;DHT22;9418;52.694;13.294;2022-08-19T13:05:08;22.70;99.90
18577;DHT22;9418;52.694;13.294;2022-08-19T13:07:38;22.70;99.90
18577;DHT22;9418;52.694;13.294;2022-08-19T13:10:07;22.80;99.90
18577;DHT22;9418;52.694;13.294;2022-08-19T13:12:34;22.90;99.90
18577;DHT22;9418;52.694;13.294;2022-08-19T13:15:00;23.00;99.90
18577;DHT22;9418;52.694;13.294;2022-08-19T13:17:27;23.10;99.90
18577;DHT22;9418;52.694;13.294;2022-08-19T13:19:53;23.10;99.90
18577;DHT22;9418;52.694;13.294;2022-08-19T13:22:20;23.20;99.90
18577;DHT22;9418;52.694;13.294;2022-08-19T13:24:48;23.30;99.90
18577;DHT22;9418;52.694;13.294;2022-08-19T13:27:14;23.50;23.30
18577;DHT22;9418;52.694;13.294;2022-08-19T13:29:41;23.70;99.90
18577;DHT22;9418;52.694;13.294;2022-08-19T13:32:26;23.80;66.40
18577;DHT22;9418;52.694;13.294;2022-08-19T13:35:10;24.10;59.90
18577;DHT22;9418;52.694;13.294;2022-08-19T13:37:37;24.10;70.90
18577;DHT22;9418;52.694;13.294;2022-08-19T13:40:15;24.20;72.90
18577;DHT22;9418;52.694;13.294;2022-08-19T13:42:44;24.30;96.50
18577;DHT22;9418;52.694;13.294;2022-08-19T13:45:13;24.30;99.90
18577;DHT22;9418;52.694;13.294;2022-08-19T13:47:41;24.30;99.90
18577;DHT22;9418;52.694;13.294;2022-08-19T13:50:10;24.30;99.90
18577;DHT22;9418;52.694;13.294;2022-08-19T13:52:37;24.30;99.90
18577;DHT22;9418;52.694;13.294;2022-08-19T13:55:05;24.40;99.90
18577;DHT22;9418;52.694;13.294;2022-08-19T13:57:33;24.40;96.00
18577;DHT22;9418;52.694;13.294;2022-08-19T14:00:00;24.20;99.90
18577;DHT22;9418;52.694;13.294;2022-08-19T14:02:28;24.20;99.90
18577;DHT22;9418;52.694;13.294;2022-08-19T14:04:54;24.00;99.90
18577;DHT22;9418;52.694;13.294;2022-08-19T14:07:21;24.00;99.90
18577;DHT22;9418;52.694;13.294;2022-08-19T14:09:48;23.90;98.80
18577;DHT22;9418;52.694;13.294;2022-08-19T14:12:18;23.80;91.30
18577;DHT22;9418;52.694;13.294;2022-08-19T14:14:46;23.60;90.30
18577;DHT22;9418;52.694;13.294;2022-08-19T14:17:13;23.60;79.20
18577;DHT22;9418;52.694;13.294;2022-08-19T14:19:40;23.40;73.20
18577;DHT22;9418;52.694;13.294;2022-08-19T14:22:07;23.40;55.80
18577;DHT22;9418;52.694;13.294;2022-08-19T14:24:34;23.30;67.50
18577;DHT22;9418;52.694;13.294;2022-08-19T14:27:03;23.30;64.20
18577;DHT22;9418;52.694;13.294;2022-08-19T14:29:29;23.30;55.40
18577;DHT22;9418;52.694;13.294;2022-08-19T14:31:57;23.30;50.70
18577;DHT22;9418;52.694;13.294;2022-08-19T14:34:24;23.40;50.60
18577;DHT22;9418;52.694;13.294;2022-08-19T14:36:51;23.40;55.80
18577;DHT22;9418;52.694;13.294;2022-08-19T14:39:18;23.30;70.20
18577;DHT22;9418;52.694;13.294;2022-08-19T14:41:44;23.30;63.50
18577;DHT22;9418;52.694;13.294;2022-08-19T14:44:11;23.30;66.10
18577;DHT22;9418;52.694;13.294;2022-08-19T14:46:38;23.40;80.40
18577;DHT22;9418;52.694;13.294;2022-08-19T14:49:07;23.40;79.60
18577;DHT22;9418;52.694;13.294;2022-08-19T14:51:33;23.30;73.80
18577;DHT22;9418;52.694;13.294;2022-08-19T14:54:00;23.30;66.10
18577;DHT22;9418;52.694;13.294;2022-08-19T14:56:28;23.20;58.30
18577;DHT22;9418;52.694;13.294;2022-08-19T14:58:56;23.20;45.40
18577;DHT22;9418;52.694;13.294;2022-08-19T15:01:26;23.20;46.50
18577;DHT22;9418;52.694;13.294;2022-08-19T15:03:53;23.20;43.20
18577;DHT22;9418;52.694;13.294;2022-08-19T15:06:22;23.20;48.60
18577;DHT22;9418;52.694;13.294;2022-08-19T15:08:49;23.10;48.40
18577;DHT22;9418;52.694;13.294;2022-08-19T15:11:19;23.10;35.00
18577;DHT22;9418;52.694;13.294;2022-08-19T15:13:46;23.00;38.10
18577;DHT22;9418;52.694;13.294;2022-08-19T15:16:13;23.00;35.70
18577;DHT22;9418;52.694;13.294;2022-08-19T15:18:41;23.00;32.10
18577;DHT22;9418;52.694;13.294;2022-08-19T15:21:09;23.00;27.50
18577;DHT22;9418;52.694;13.294;2022-08-19T15:23:39;23.00;30.60
18577;DHT22;9418;52.694;13.294;2022-08-19T15:26:06;22.90;28.50
18577;DHT22;9418;52.694;13.294;2022-08-19T15:28:33;22.90;22.10
18577;DHT22;9418;52.694;13.294;2022-08-19T15:31:00;22.90;99.90
18577;DHT22;9418;52.694;13.294;2022-08-19T15:33:27;22.80;99.90
18577;DHT22;9418;52.694;13.294;2022-08-19T15:35:54;22.80;99.90
18577;DHT22;9418;52.694;13.294;2022-08-19T15:38:22;22.70;99.90